Terminal Aerodrome Forecast
Issued by NWS

Home | Current Version | Previous Version | Text Only | Print | Product List | Glossary On
Versions: 1 2 3 4 5 6 7 8 9 10 11 12 13 14 15 16 17 18 19 20
000
FTUS43 KOAX 281736
TAFBFF
TAF
KBFF 281736Z 2818/2918 29009KT P6SM SCT250
     FM281900 28012G20KT P6SM SCT250
     FM290100 28007KT P6SM SCT250=

USA.gov is the U.S. government's official web portal to all federal, state and local government web resources and services.